Sunday, November 19, 2017, 4:56 AM GMT
Back to Local

CYHU, Saint Hubert Airport

Location: , , Canada Lat: 45.517
Local Time: 4:56 AM GMT ( 4:56 GMT) Lon: -73.417
Time Zone: GMT Elev: 88 ft

Show me the last for .
Show Decoded

2017-11-19 04:27 METAR CYHU 190427Z AUTO 10008KT 9SM OVC017 01/M01 A2929 RMK PRESFR SLP920 =
2017-11-19 04:00 METAR CYHU 190400Z AUTO 11007KT 9SM -RA OVC019 01/M01 A2933 RMK SLP935 =
2017-11-19 03:31 METAR CYHU 190331Z AUTO 06004KT 010V090 7SM -RA OVC021 00/M01 A2935 RMK ICG PAST
                 HR PRESFR SLP941 =
2017-11-19 03:25 METAR CYHU 190325Z AUTO 05004KT 360V080 8SM -RASN BKN021 OVC055 00/M01 A2936 RMK
                 ICG PAST HR PRESFR SLP944 =
2017-11-19 03:11 METAR CYHU 190311Z AUTO 02003KT 8SM -SN BKN023 OVC055 M00/M02 A2938 RMK ICG PAST
                 HR SLP950 =
2017-11-19 03:10 METAR CYHU 190310Z AUTO 02003KT 8SM -RASN BKN023 OVC055 M00/M02 A2938 RMK ICG
                 PAST HR SLP950 =
2017-11-19 03:05 METAR CYHU 190305Z AUTO 04004KT 9SM -RASN SCT023 OVC055 M00/M02 A2938 RMK ICG
                 PAST HR SLP950 =
2017-11-19 03:03 METAR CYHU 190303Z AUTO 03004KT 9SM -RA FEW023 OVC055 M00/M02 A2938 RMK ICG PAST
                 HR SLP951 =
2017-11-19 03:02 METAR CYHU 190302Z AUTO 03003KT 9SM -FZRA FEW023 OVC055 M00/M02 A2938 RMK ICG
                 PAST HR SLP951 =
2017-11-19 03:00 METAR CYHU 190300Z AUTO 03004KT 9SM -FZRA FEW038 OVC055 M00/M02 A2938 RMK ICG
                 INTMT PRESFR SLP951 =
2017-11-19 02:45 METAR CYHU 190245Z AUTO 03005KT 6SM -FZRA BR BKN040 OVC050 M01/M02 A2939 RMK ICG
                 PRESFR SLP956 =
2017-11-19 02:41 METAR CYHU 190241Z AUTO 02004KT 5SM -FZRA BR BKN040 OVC050 M01/M02 A2940 RMK ICG
                 PRESFR SLP959 =
2017-11-19 02:36 METAR CYHU 190236Z AUTO 01005KT 5SM -FZRA -SN OVC038 M01/M03 A2941 RMK ICG
                 SLP961 =
2017-11-19 02:35 METAR CYHU 190235Z AUTO 01005KT 6SM -FZRA -SN OVC038 M01/M03 A2941 RMK ICG
                 SLP961 =
2017-11-19 02:32 METAR CYHU 190232Z AUTO 02004KT 7SM -SN BKN036 OVC044 M01/M03 A2941 RMK ICG
                 SLP963 =
2017-11-19 02:00 METAR CYHU 190200Z AUTO 04007KT 9SM -SN OVC036 M01/M04 A2943 RMK PRESFR SLP968 =
2017-11-19 01:52 METAR CYHU 190152Z AUTO 03006KT 9SM -SN OVC036 M01/M04 A2944 RMK PRESFR SLP972 =
2017-11-19 01:00 METAR CYHU 190100Z AUTO 01007KT 9SM OVC040 M01/M04 A2948 RMK SLP985 =
2017-11-19 00:00 METAR CYHU 190000Z AUTO 02008KT 9SM OVC042 M01/M04 A2950 RMK SLP994 =
2017-11-18 23:00 METAR CYHU 182300Z AUTO 03007KT 9SM OVC050 M00/M05 A2953 RMK SLP002 =
2017-11-18 22:38 METAR CYHU 182238Z AUTO 02007KT 9SM OVC050 M00/M05 A2953 RMK SLP004 =
2017-11-18 22:24 METAR CYHU 182224Z AUTO 02006KT 9SM -SN OVC055 M00/M05 A2954 RMK SLP005 =
2017-11-18 22:00 METAR CYHU 182200Z AUTO 02009KT 9SM OVC060 M00/M05 A2954 RMK PRESFR SLP006 =
2017-11-18 21:00 METAR CYHU 182100Z AUTO 01008KT 9SM OVC070 00/M05 A2957 RMK SLP018 =
2017-11-18 20:00 METAR CYHU 182000Z AUTO 06005KT 9SM OVC070 00/M06 A2957 RMK SLP018 =
2017-11-18 19:00 METAR CYHU 181900Z AUTO 04010KT 9SM OVC070 M00/M05 A2961 RMK SLP031 =
2017-11-18 18:00 METAR CYHU 181800Z AUTO 06007KT 9SM BKN100 BKN120 BKN220 M00/M05 A2967 RMK
                 SLP051 =
2017-11-18 17:00 METAR CYHU 181700Z AUTO 04009KT 9SM OVC110 M01/M06 A2971 RMK PRESFR SLP063 =
2017-11-18 16:00 METAR CYHU 181600Z AUTO 03007KT 9SM FEW100 SCT120 SCT140 M01/M07 A2975 RMK
                 SLP078 =
2017-11-18 15:00 METAR CYHU 181500Z AUTO 04007KT 9SM FEW130 M02/M06 A2978 RMK SLP089 =
2017-11-18 14:00 METAR CYHU 181400Z AUTO 05006KT 9SM BKN130 M03/M06 A2983 RMK SLP106 =
2017-11-18 13:00 METAR CYHU 181300Z AUTO 08006KT 9SM CLR M04/M07 A2987 RMK SLP119 =
2017-11-18 12:00 METAR CYHU 181200Z AUTO 09007KT 9SM OVC130 M05/M08 A2991 RMK SLP133 =
2017-11-18 11:00 METAR CYHU 181100Z AUTO 11003KT 9SM FEW180 BKN240 M06/M08 A2994 RMK SLP141 =
2017-11-18 10:00 METAR CYHU 181000Z AUTO 10006KT 9SM OVC120 M05/M07 A2993 RMK PRESFR SLP137 =
2017-11-18 09:00 METAR CYHU 180900Z AUTO 14002KT 9SM BKN140 BKN200 M07/M09 A2999 RMK SLP157 =
2017-11-18 08:00 METAR CYHU 180800Z AUTO VRB02KT 9SM SCT210 BKN230 M07/M09 A2999 RMK SLP160 =
2017-11-18 07:00 METAR CYHU 180700Z AUTO 12004KT 9SM FEW230 M06/M09 A3000 RMK SLP161 =
2017-11-18 06:00 METAR CYHU 180600Z AUTO 14002KT 9SM BKN210 BKN240 M05/M09 A3001 RMK SLP166 =
2017-11-18 05:00 METAR CYHU 180500Z AUTO 00000KT 9SM BKN230 BKN250 M04/M09 A3003 RMK SLP173 =

Support USWX by starting your Amazon purchase here.